createdAt,value
2023-03-21T00:01:00.906Z,71.41
2023-03-21T00:03:36.880Z,71.32
2023-03-21T00:06:11.339Z,71.58
2023-03-21T00:08:44.745Z,71.51
2023-03-21T00:11:17.484Z,71.85
2023-03-21T00:13:50.205Z,71.78
2023-03-21T00:16:26.142Z,71.71
2023-03-21T00:19:07.550Z,71.92
2023-03-21T00:22:06.001Z,72.19
2023-03-21T00:24:36.793Z,72.29
2023-03-21T00:30:02.230Z,72.66
2023-03-21T00:32:39.790Z,72.66
2023-03-21T00:35:51.603Z,72.83
2023-03-21T00:38:10.150Z,72.78
2023-03-21T00:40:48.806Z,72.92
2023-03-21T00:43:23.617Z,72.86
2023-03-21T00:45:56.271Z,72.87
2023-03-21T00:48:29.322Z,73.02
2023-03-21T00:51:06.589Z,73.12
2023-03-21T00:53:39.330Z,73.01
2023-03-21T00:56:12.347Z,73.36
2023-03-21T00:58:45.490Z,73.43
2023-03-21T01:01:18.435Z,73.73
2023-03-21T01:04:03.691Z,73.80
2023-03-21T01:06:40.172Z,73.90
2023-03-21T01:09:13.904Z,74.34
2023-03-21T01:11:47.059Z,74.37
2023-03-21T01:14:23.318Z,74.53
2023-03-21T01:16:56.516Z,74.49
2023-03-21T01:19:48.294Z,74.50
2023-03-21T01:22:24.593Z,74.63
2023-03-21T01:25:08.783Z,74.47
2023-03-21T01:27:51.481Z,74.16
2023-03-21T01:30:24.952Z,74.24
2023-03-21T01:32:59.491Z,74.37
2023-03-21T01:35:41.029Z,73.70
2023-03-21T01:38:22.531Z,73.78
2023-03-21T01:40:55.913Z,73.28
2023-03-21T01:43:29.881Z,73.13
2023-03-21T01:46:22.368Z,73.35
2023-03-21T01:48:56.079Z,72.66
2023-03-21T01:51:30.308Z,72.66
2023-03-21T01:54:06.761Z,72.99
2023-03-21T01:56:40.746Z,72.88
2023-03-21T01:59:17.452Z,72.58
2023-03-21T02:01:51.350Z,72.30
2023-03-21T02:04:28.331Z,72.23
2023-03-21T02:07:03.855Z,72.05
2023-03-21T02:09:40.336Z,71.95
2023-03-21T02:12:13.196Z,71.79
2023-03-21T02:14:47.429Z,71.92
2023-03-21T02:17:27.136Z,71.89
2023-03-21T02:20:29.718Z,71.99
2023-03-21T02:23:25.877Z,72.16
2023-03-21T02:26:12.888Z,72.17
2023-03-21T02:28:47.267Z,72.13
2023-03-21T02:31:26.591Z,72.43
2023-03-21T02:34:18.089Z,72.32
2023-03-21T02:37:02.268Z,72.50
2023-03-21T02:39:40.428Z,72.73
2023-03-21T02:42:18.368Z,72.78
2023-03-21T02:44:54.656Z,72.47
2023-03-21T02:47:30.514Z,72.40
2023-03-21T02:50:06.906Z,72.22
2023-03-21T02:52:41.880Z,72.13
2023-03-21T02:55:16.673Z,71.39
2023-03-21T02:57:51.099Z,71.57
2023-03-21T03:00:26.870Z,71.26
2023-03-21T03:03:09.250Z,71.60
2023-03-21T03:05:45.121Z,71.94
2023-03-21T03:08:36.173Z,71.78
2023-03-21T03:11:24.140Z,71.72
2023-03-21T03:14:25.465Z,71.33
2023-03-21T03:17:05.281Z,71.33
2023-03-21T03:19:50.571Z,71.32
2023-03-21T03:22:26.188Z,71.44
2023-03-21T03:25:16.063Z,71.53
2023-03-21T03:27:55.257Z,71.11
2023-03-21T03:30:41.152Z,71.22
2023-03-21T03:33:18.091Z,71.30
2023-03-21T03:36:04.459Z,71.30
2023-03-21T03:38:39.439Z,71.61
2023-03-21T03:41:19.509Z,71.03
2023-03-21T03:43:54.988Z,71.37
2023-03-21T03:46:29.686Z,71.61
2023-03-21T03:49:03.602Z,71.14
2023-03-21T03:51:40.094Z,71.07
2023-03-21T03:54:15.118Z,71.70
2023-03-21T03:56:49.451Z,71.45
2023-03-21T03:59:23.418Z,71.32
2023-03-21T04:01:56.162Z,71.58
2023-03-21T04:04:29.440Z,71.74
2023-03-21T04:07:03.591Z,71.66
2023-03-21T04:09:44.142Z,71.87
2023-03-21T04:12:19.368Z,71.89
2023-03-21T04:14:53.278Z,71.51
2023-03-21T04:17:27.654Z,71.65
2023-03-21T04:20:10.790Z,72.02
2023-03-21T04:22:45.645Z,71.90
2023-03-21T04:25:30.700Z,71.93
2023-03-21T04:28:05.175Z,72.32
2023-03-21T04:30:38.695Z,72.27
2023-03-21T04:33:11.780Z,73.09
2023-03-21T04:35:45.787Z,72.77
2023-03-21T04:38:18.551Z,73.01
2023-03-21T04:40:51.301Z,73.32
2023-03-21T04:43:25.479Z,72.95
2023-03-21T04:45:58.283Z,72.61
2023-03-21T04:48:31.118Z,72.93
2023-03-21T04:51:03.815Z,72.70
2023-03-21T04:53:38.440Z,72.59
2023-03-21T04:56:11.501Z,72.51
2023-03-21T04:58:45.935Z,72.72
2023-03-21T05:01:20.910Z,72.35
2023-03-21T05:03:53.810Z,72.67
2023-03-21T05:06:27.928Z,72.70
2023-03-21T05:09:01.694Z,72.61
2023-03-21T05:11:36.015Z,72.66
2023-03-21T05:14:11.267Z,72.51
2023-03-21T05:16:45.477Z,72.75
2023-03-21T05:19:19.155Z,73.20
2023-03-21T05:21:52.064Z,72.68
2023-03-21T05:24:24.921Z,72.33
2023-03-21T05:27:02.170Z,72.97
2023-03-21T05:29:38.491Z,72.81
2023-03-21T05:32:11.510Z,72.73
2023-03-21T05:34:44.176Z,72.51
2023-03-21T05:37:16.998Z,72.38
2023-03-21T05:39:49.830Z,72.79
2023-03-21T05:42:22.702Z,72.21
2023-03-21T05:44:56.814Z,72.28
2023-03-21T05:47:29.583Z,72.61
2023-03-21T05:50:02.237Z,72.58
2023-03-21T05:52:35.026Z,72.45
2023-03-21T05:55:08.132Z,72.83
2023-03-21T05:57:41.307Z,73.17
2023-03-21T06:00:16.171Z,72.73
2023-03-21T06:02:49.268Z,73.13
2023-03-21T06:05:21.959Z,73.17
2023-03-21T06:07:54.823Z,73.45
2023-03-21T06:10:27.872Z,73.24
2023-03-21T06:13:00.632Z,73.09
2023-03-21T06:15:35.039Z,73.72
2023-03-21T06:18:08.051Z,73.28
2023-03-21T06:20:40.698Z,73.89
2023-03-21T06:23:13.680Z,74.06
2023-03-21T06:25:46.697Z,74.20
2023-03-21T06:28:19.499Z,73.56
2023-03-21T06:30:53.788Z,73.74
2023-03-21T06:33:26.654Z,74.58
2023-03-21T06:35:59.858Z,74.80
2023-03-21T06:38:33.000Z,74.53
2023-03-21T06:41:05.803Z,75.06
2023-03-21T06:43:38.619Z,75.52
2023-03-21T06:46:13.261Z,75.69
2023-03-21T06:48:46.078Z,75.83
2023-03-21T06:51:19.288Z,76.04
2023-03-21T06:53:52.088Z,75.85
2023-03-21T06:56:24.831Z,76.43
2023-03-21T06:58:58.204Z,76.68
2023-03-21T07:01:32.312Z,76.87
2023-03-21T07:04:06.743Z,76.98
2023-03-21T07:06:39.655Z,76.86
2023-03-21T07:09:12.532Z,76.77
2023-03-21T07:11:45.620Z,76.82
2023-03-21T07:14:18.434Z,76.89
2023-03-21T07:16:52.672Z,77.10
2023-03-21T07:19:26.420Z,77.04
2023-03-21T07:22:00.328Z,77.03
2023-03-21T07:24:33.162Z,76.91
2023-03-21T07:27:05.929Z,76.93
2023-03-21T07:29:38.750Z,76.92
2023-03-21T07:32:13.062Z,76.99
2023-03-21T07:34:45.889Z,77.67
2023-03-21T07:37:18.701Z,77.48
2023-03-21T07:39:52.046Z,77.32
2023-03-21T07:42:24.720Z,77.62
2023-03-21T07:44:57.632Z,77.86
2023-03-21T07:47:32.023Z,77.78
2023-03-21T07:50:05.820Z,78.28
2023-03-21T07:52:38.597Z,78.43
2023-03-21T07:55:13.185Z,77.90
2023-03-21T07:57:46.729Z,78.53
2023-03-21T08:00:23.304Z,78.48
2023-03-21T08:02:59.142Z,77.98
2023-03-21T08:05:35.124Z,77.94
2023-03-21T08:08:08.666Z,77.44
2023-03-21T08:10:43.240Z,76.36
2023-03-21T08:13:16.139Z,74.93
2023-03-21T08:15:49.528Z,76.10
2023-03-21T08:18:24.057Z,73.95
2023-03-21T08:20:57.339Z,73.88
2023-03-21T08:23:30.391Z,74.89
2023-03-21T08:26:03.474Z,74.92
2023-03-21T08:28:36.723Z,72.73
2023-03-21T08:31:10.950Z,75.05
2023-03-21T08:33:45.174Z,75.15
2023-03-21T08:36:18.094Z,76.03
2023-03-21T08:38:54.690Z,76.49
2023-03-21T08:41:27.434Z,77.38
2023-03-21T08:44:00.218Z,77.90
2023-03-21T08:46:33.714Z,77.43
2023-03-21T08:49:07.989Z,77.52
2023-03-21T08:51:41.353Z,76.10
2023-03-21T08:54:19.818Z,77.37
2023-03-21T08:56:53.951Z,76.13
2023-03-21T08:59:26.722Z,77.28
2023-03-21T09:01:59.650Z,77.53
2023-03-21T09:04:34.468Z,78.37
2023-03-21T09:07:07.329Z,77.74
2023-03-21T09:09:40.328Z,77.95
2023-03-21T09:12:13.270Z,78.11
2023-03-21T09:14:46.483Z,78.00
2023-03-21T09:17:21.227Z,76.93
2023-03-21T09:19:57.289Z,76.81
2023-03-21T09:22:30.942Z,67.72
2023-03-21T09:25:07.655Z,74.13
2023-03-21T09:27:42.361Z,74.96
2023-03-21T09:30:16.530Z,74.68
2023-03-21T09:32:53.677Z,75.10
2023-03-21T09:35:28.362Z,74.99
2023-03-21T09:38:01.612Z,74.92
2023-03-21T09:40:52.750Z,74.47
2023-03-21T09:43:34.348Z,74.21
2023-03-21T09:46:11.455Z,71.72
2023-03-21T09:48:56.665Z,75.19
2023-03-21T09:51:33.969Z,72.82
2023-03-21T09:54:10.789Z,73.92
2023-03-21T09:56:44.472Z,74.10
2023-03-21T09:59:22.446Z,75.97
2023-03-21T10:01:55.653Z,75.92
2023-03-21T10:04:29.863Z,76.69
2023-03-21T10:07:04.341Z,74.30
2023-03-21T10:09:41.318Z,77.45
2023-03-21T10:12:17.707Z,75.84
2023-03-21T10:14:53.024Z,76.49
2023-03-21T10:17:28.734Z,74.66
2023-03-21T10:20:12.076Z,66.67
2023-03-21T10:22:47.729Z,73.47
2023-03-21T10:25:22.692Z,73.26
2023-03-21T10:27:55.760Z,73.11
2023-03-21T10:30:32.121Z,74.30
2023-03-21T10:33:09.614Z,73.10
2023-03-21T10:35:45.160Z,72.58
2023-03-21T10:38:20.784Z,74.37
2023-03-21T10:40:54.088Z,72.11
2023-03-21T10:43:35.530Z,71.70
2023-03-21T10:46:11.068Z,72.06
2023-03-21T10:48:47.074Z,74.00
2023-03-21T10:51:21.416Z,72.69
2023-03-21T10:53:57.123Z,72.69
2023-03-21T10:56:31.198Z,73.21
2023-03-21T10:59:05.057Z,73.98
2023-03-21T11:01:39.080Z,75.08
2023-03-21T11:04:16.365Z,75.63
2023-03-21T11:06:52.620Z,70.22
2023-03-21T11:09:28.248Z,73.08
2023-03-21T11:12:03.800Z,72.70
2023-03-21T11:14:39.183Z,72.69
2023-03-21T11:17:21.456Z,73.12
2023-03-21T11:19:55.169Z,74.44
2023-03-21T11:22:30.186Z,75.87
2023-03-21T11:25:06.969Z,74.13
2023-03-21T11:27:49.030Z,74.00
2023-03-21T11:30:23.346Z,74.42
2023-03-21T11:32:57.506Z,74.65
2023-03-21T11:35:34.362Z,72.13
2023-03-21T11:38:08.210Z,74.66
2023-03-21T11:40:53.894Z,71.52
2023-03-21T11:43:28.964Z,73.48
2023-03-21T11:46:06.362Z,73.53
2023-03-21T11:48:41.037Z,69.63
2023-03-21T11:51:19.192Z,68.53
2023-03-21T11:53:58.524Z,66.86
2023-03-21T11:56:34.042Z,67.29
2023-03-21T11:59:22.224Z,69.59
2023-03-21T12:02:21.945Z,70.99
2023-03-21T12:04:58.767Z,69.80
2023-03-21T12:07:45.699Z,70.39
2023-03-21T12:10:28.791Z,73.09
2023-03-21T12:13:11.688Z,72.90
2023-03-21T12:15:50.002Z,66.19
2023-03-21T12:18:37.594Z,67.98
2023-03-21T12:21:12.519Z,71.20
2023-03-21T12:23:52.021Z,72.93
2023-03-21T12:26:28.299Z,72.45
2023-03-21T12:29:25.925Z,70.80
2023-03-21T12:32:07.582Z,72.93
2023-03-21T12:35:04.730Z,72.82
2023-03-21T12:37:42.620Z,73.09
2023-03-21T12:40:19.381Z,73.49
2023-03-21T12:43:07.161Z,73.25
2023-03-21T12:45:47.412Z,74.62
2023-03-21T12:48:24.711Z,73.10
2023-03-21T12:50:58.733Z,73.86
2023-03-21T12:53:37.943Z,72.53
2023-03-21T12:56:12.772Z,69.52
2023-03-21T12:58:47.797Z,69.84
2023-03-21T13:01:22.757Z,71.59
2023-03-21T13:04:05.864Z,72.26
2023-03-21T13:06:39.178Z,70.17
2023-03-21T13:09:16.047Z,73.62
2023-03-21T13:11:50.933Z,73.12
2023-03-21T13:14:26.566Z,71.91
2023-03-21T13:17:02.801Z,70.59
2023-03-21T13:19:41.070Z,69.75
2023-03-21T13:22:22.227Z,73.42
2023-03-21T13:24:59.225Z,68.54
2023-03-21T13:27:33.683Z,70.84
2023-03-21T13:30:07.541Z,71.48
2023-03-21T13:32:43.985Z,69.18
2023-03-21T13:35:20.864Z,71.37
2023-03-21T13:37:54.817Z,71.25
2023-03-21T13:40:28.593Z,69.94
2023-03-21T13:43:03.734Z,69.95
2023-03-21T13:45:46.751Z,73.14
2023-03-21T13:48:28.895Z,72.78
2023-03-21T13:51:04.200Z,70.61
2023-03-21T13:53:38.212Z,70.92
2023-03-21T13:56:31.015Z,72.83
2023-03-21T13:59:05.341Z,70.43
2023-03-21T14:01:41.371Z,71.97
2023-03-21T14:04:15.988Z,72.73
2023-03-21T14:06:52.700Z,69.13
2023-03-21T14:09:30.867Z,67.04
2023-03-21T14:12:07.872Z,68.24
2023-03-21T14:14:43.167Z,63.41
2023-03-21T14:17:17.233Z,67.84
2023-03-21T14:19:52.896Z,71.62
2023-03-21T14:22:27.155Z,72.10
2023-03-21T14:25:02.794Z,71.52
2023-03-21T14:27:37.833Z,71.38
2023-03-21T14:30:13.355Z,71.93
2023-03-21T14:32:47.630Z,71.42
2023-03-21T14:35:22.205Z,70.47
2023-03-21T14:37:56.813Z,69.20
2023-03-21T14:40:30.323Z,70.94
2023-03-21T14:43:06.082Z,71.54
2023-03-21T14:45:41.447Z,70.15
2023-03-21T14:48:16.422Z,70.87
2023-03-21T14:50:50.246Z,69.73
2023-03-21T14:53:27.277Z,71.33
2023-03-21T14:56:02.851Z,70.99
2023-03-21T14:58:39.542Z,70.96
2023-03-21T15:01:15.937Z,70.70
2023-03-21T15:03:51.544Z,70.11
2023-03-21T15:06:24.468Z,70.47
2023-03-21T15:08:59.479Z,71.32
2023-03-21T15:11:32.655Z,71.44
2023-03-21T15:14:07.207Z,71.31
2023-03-21T15:16:40.555Z,72.27
2023-03-21T15:19:18.182Z,71.96
2023-03-21T15:21:52.819Z,72.81
2023-03-21T15:24:29.245Z,72.35
2023-03-21T15:27:03.656Z,72.50
2023-03-21T15:29:37.181Z,72.82
2023-03-21T15:32:15.359Z,72.74
2023-03-21T15:34:48.215Z,70.82
2023-03-21T15:37:23.704Z,72.05
2023-03-21T15:40:09.692Z,72.75
2023-03-21T15:42:43.407Z,72.44
2023-03-21T15:45:18.670Z,72.49
2023-03-21T15:47:53.014Z,72.13
2023-03-21T15:50:34.509Z,72.04
2023-03-21T15:53:08.868Z,71.65
2023-03-21T15:55:48.509Z,71.12
2023-03-21T15:58:22.237Z,68.39
2023-03-21T16:00:56.026Z,69.47
2023-03-21T16:03:32.444Z,70.14
2023-03-21T16:06:06.325Z,69.69
2023-03-21T16:08:44.779Z,70.05
2023-03-21T16:11:20.636Z,70.32
2023-03-21T16:13:54.113Z,69.18
2023-03-21T16:16:27.611Z,69.04
2023-03-21T16:19:01.745Z,69.49
2023-03-21T16:21:38.292Z,69.57
2023-03-21T16:24:12.455Z,69.66
2023-03-21T16:26:50.958Z,69.72
2023-03-21T16:29:23.777Z,69.78
2023-03-21T16:31:56.483Z,69.92
2023-03-21T16:34:29.557Z,69.74
2023-03-21T16:37:02.350Z,69.75
2023-03-21T16:39:35.315Z,69.91
2023-03-21T16:42:10.915Z,69.69
2023-03-21T16:44:43.765Z,69.58
2023-03-21T16:47:17.769Z,69.27
2023-03-21T16:49:51.079Z,69.54
2023-03-21T16:52:26.291Z,69.48
2023-03-21T16:54:59.130Z,69.53
2023-03-21T16:57:33.289Z,69.57
2023-03-21T17:00:09.961Z,69.77
2023-03-21T17:02:42.634Z,69.74
2023-03-21T17:05:15.527Z,69.74
2023-03-21T17:07:48.828Z,69.66
2023-03-21T17:10:22.766Z,69.43
2023-03-21T17:12:56.865Z,69.54
2023-03-21T17:15:29.887Z,69.31
2023-03-21T17:18:02.973Z,69.30
2023-03-21T17:20:37.927Z,69.44
2023-03-21T17:23:11.149Z,69.49
2023-03-21T17:25:43.938Z,70.13
2023-03-21T17:28:18.339Z,69.90
2023-03-21T17:30:51.045Z,69.62
2023-03-21T17:33:23.860Z,69.51
2023-03-21T17:35:56.932Z,69.37
2023-03-21T17:38:31.464Z,69.51
2023-03-21T17:41:04.622Z,69.67
2023-03-21T17:43:39.053Z,69.77
2023-03-21T17:46:14.751Z,69.78
2023-03-21T17:48:47.601Z,70.15
2023-03-21T17:51:23.072Z,69.98
2023-03-21T17:53:56.274Z,70.11
2023-03-21T17:56:30.869Z,70.36
2023-03-21T17:59:07.236Z,70.53
2023-03-21T18:01:40.460Z,70.35
2023-03-21T18:04:13.222Z,70.03
2023-03-21T18:06:46.154Z,70.32
2023-03-21T18:09:21.522Z,70.25
2023-03-21T18:11:54.942Z,70.22
2023-03-21T18:14:30.691Z,70.42
2023-03-21T18:17:03.593Z,70.49
2023-03-21T18:19:38.834Z,70.66
2023-03-21T18:22:11.514Z,70.73
2023-03-21T18:24:44.253Z,70.74
2023-03-21T18:27:17.376Z,70.90
2023-03-21T18:30:25.813Z,71.04
2023-03-21T18:32:46.537Z,70.97
2023-03-21T18:35:21.263Z,71.02
2023-03-21T18:37:54.076Z,70.84
2023-03-21T18:40:28.091Z,71.14
2023-03-21T18:45:55.213Z,71.04
2023-03-21T18:48:30.898Z,71.18
2023-03-21T18:51:04.968Z,70.91
2023-03-21T18:53:38.161Z,70.93
2023-03-21T18:56:11.702Z,71.13
2023-03-21T18:58:47.244Z,71.14
2023-03-21T19:01:21.815Z,71.03
2023-03-21T19:04:20.399Z,71.54
2023-03-21T19:06:53.478Z,71.01
2023-03-21T19:09:31.262Z,71.29
2023-03-21T19:12:04.947Z,71.38
2023-03-21T19:14:37.913Z,71.63
2023-03-21T19:18:21.944Z,71.95
2023-03-21T19:20:05.756Z,72.12
2023-03-21T19:22:38.649Z,72.86
2023-03-21T19:25:11.959Z,72.58
2023-03-21T19:27:44.914Z,72.59
2023-03-21T19:30:17.839Z,73.02
2023-03-21T19:32:52.058Z,73.19
2023-03-21T19:35:25.275Z,73.51
2023-03-21T19:37:58.599Z,73.57
2023-03-21T19:40:31.684Z,73.65
2023-03-21T19:43:29.846Z,74.04
2023-03-21T19:45:58.162Z,73.95
2023-03-21T19:48:33.180Z,74.25
2023-03-21T19:51:26.842Z,74.15
2023-03-21T19:53:58.884Z,74.29
2023-03-21T19:56:32.059Z,74.29
2023-03-21T19:59:04.943Z,74.50
2023-03-21T20:01:37.736Z,74.25
2023-03-21T20:04:12.681Z,74.58
2023-03-21T20:06:45.553Z,74.61
2023-03-21T20:09:50.566Z,74.41
2023-03-21T20:12:11.440Z,74.13
2023-03-21T20:14:49.096Z,74.37
2023-03-21T20:17:21.914Z,74.24
2023-03-21T20:19:58.037Z,74.16
2023-03-21T20:23:01.648Z,73.98
2023-03-21T20:25:23.486Z,73.83
2023-03-21T20:28:12.799Z,73.98
2023-03-21T20:30:48.619Z,73.66
2023-03-21T20:33:21.678Z,73.78
2023-03-21T20:38:55.650Z,73.15
2023-03-21T20:41:28.628Z,73.13
2023-03-21T20:46:54.981Z,72.78
2023-03-21T20:49:28.455Z,72.83
2023-03-21T20:54:57.428Z,72.40
2023-03-21T20:57:30.581Z,72.51
2023-03-21T21:00:08.733Z,72.48
2023-03-21T21:02:41.801Z,72.46
2023-03-21T21:05:27.408Z,72.54
2023-03-21T21:08:04.365Z,72.52
2023-03-21T21:11:04.031Z,72.47
2023-03-21T21:13:31.233Z,72.55
2023-03-21T21:16:05.149Z,72.69
2023-03-21T21:18:38.176Z,72.74
2023-03-21T21:21:10.830Z,73.08
2023-03-21T21:23:45.140Z,72.94
2023-03-21T21:26:17.930Z,72.96
2023-03-21T21:28:52.266Z,72.50
2023-03-21T21:31:25.010Z,73.03
2023-03-21T21:33:59.149Z,72.92
2023-03-21T21:36:31.800Z,72.60
2023-03-21T21:39:07.475Z,73.25
2023-03-21T21:41:40.855Z,73.47
2023-03-21T21:44:13.708Z,73.38
2023-03-21T21:46:47.215Z,74.30
2023-03-21T21:49:20.012Z,74.13
2023-03-21T21:51:52.739Z,73.95
2023-03-21T21:54:30.223Z,74.24
2023-03-21T21:57:02.971Z,74.35
2023-03-21T21:59:35.663Z,74.60
2023-03-21T22:02:10.045Z,74.48
2023-03-21T22:04:42.801Z,74.64
2023-03-21T22:07:15.566Z,74.31
2023-03-21T22:09:50.004Z,74.02
2023-03-21T22:12:22.757Z,74.17
2023-03-21T22:14:55.689Z,74.66
2023-03-21T22:17:28.475Z,74.45
2023-03-21T22:20:06.478Z,74.73
2023-03-21T22:22:39.404Z,75.22
2023-03-21T22:25:14.922Z,74.84
2023-03-21T22:27:47.637Z,75.54
2023-03-21T22:30:20.490Z,75.29
2023-03-21T22:33:08.086Z,75.11
2023-03-21T22:35:42.017Z,74.59
2023-03-21T22:38:17.976Z,74.90
2023-03-21T22:40:55.588Z,74.86
2023-03-21T22:43:28.642Z,74.43
2023-03-21T22:46:02.233Z,74.60
2023-03-21T22:48:34.961Z,74.79
2023-03-21T22:51:08.792Z,74.82
2023-03-21T22:53:41.438Z,74.88
2023-03-21T22:56:15.639Z,74.75
2023-03-21T22:58:48.681Z,74.75
2023-03-21T23:01:21.445Z,74.79
2023-03-21T23:03:54.312Z,74.62
2023-03-21T23:06:27.127Z,74.07
2023-03-21T23:08:59.869Z,73.69
2023-03-21T23:11:34.162Z,73.88
2023-03-21T23:14:08.788Z,74.06
2023-03-21T23:16:42.317Z,73.80
2023-03-21T23:19:16.012Z,74.13
2023-03-21T23:21:48.764Z,74.12
2023-03-21T23:24:21.503Z,74.23
2023-03-21T23:26:55.606Z,74.04
2023-03-21T23:29:28.346Z,74.19
2023-03-21T23:32:01.086Z,73.96
2023-03-21T23:34:33.870Z,74.03
2023-03-21T23:37:06.948Z,74.63
2023-03-21T23:39:39.651Z,74.32
2023-03-21T23:42:13.921Z,74.37
2023-03-21T23:44:46.648Z,74.34
2023-03-21T23:47:19.665Z,73.97
2023-03-21T23:49:52.906Z,73.93
2023-03-21T23:52:25.768Z,73.91
2023-03-21T23:54:58.550Z,73.95
2023-03-21T23:57:32.736Z,73.97
